Haslet, TX (76052)

10:11 AM CDT on September 05, 2015 (GMT -0500)
Villages of Woodland Springs West | | Change Station
CLOSE
Current Station
Personal Weather Station
Location: Keller, TX
Elevation: 797 ft
Nearby Weather Stations

Elev 797 ft 32.95 °N, 97.31 °W | Updated 1 minute ago

Scattered Clouds
Scattered Clouds
84.9 °F
Feels Like 91 °F
N
0.0
Wind Variable Wind from SW
Gusts 0.0 mph

Today
High -- | Low -- °F
--% Chance of Precip.
Yesterday
High -- | Low -- °F
Precip. -- in
7:06 AM 7:49 PM
Waning Gibbous, 48% visible
Pressure 29.96 in
Visibility 10.0 miles
Clouds Few 2100 ft
Few 7000 ft
Scattered Clouds 30000 ft
Heat Index 91 °F
Dew Point 72 °F
Humidity 65%
Rainfall 0.00 in
Snow Depth Not available.
UV 3 out of 12
Pollen 10.30 out of 12
Air Quality Not available.
Flu Activity Not available.
METAR KAFW 051453Z 19006KT 10SM FEW021 FEW070 SCT300 30/22 A3001 RMK AO2 SLP146 T03000222 51010 $
Pressure 29.96 in
Visibility 10.0 miles
Clouds Few 2100 ft
Few 7000 ft
Scattered Clouds 30000 ft
Heat Index 91 °F
Dew Point 72 °F
Humidity 65%
Rainfall 0.00 in
Snow Depth Not available.
UV 3 out of 12
Pollen 10.30 out of 12
Air Quality Not available.
Flu Activity Not available.
METAR KAFW 051453Z 19006KT 10SM FEW021 FEW070 SCT300 30/22 A3001 RMK AO2 SLP146 T03000222 51010 $

10-Day Weather Forecast

×

Almanac

Astronomy

Sep. 05, 2015 Rise Set
Actual Time
Civil Twilight
Nautical Twilight
Astronomical Twilight
Moon
Length of Visible Light
Length of Day
Tomorrow will be .
, % of the Moon is Illuminated

Today's Extremes

State Highs State Lows

Community

WunderPhotos

Upload Photos

1,852,480 photos uploaded!

WunderBlogs® & News

Nearby

Air Quality

  Air Quality AQ Index Pollutant
Not available.

Snow Depth

Station Depth Elevation

Earthquake Activity

City Distance Mag. Time & Date
Minimum magnitude displayed is 2.5.

Coastal Water Temperatures

Place Temperature

Stations

Nearby Weather Stations

Station Location Temp. Windchill Dew Point Humidity Wind Precip. Elev Updated Type